sensor_id;sensor_type;location;lat;lon;timestamp;pressure;altitude;pressure_sealevel;temperature;humidity
62011;BME280;47967;51.756;10.174;2023-05-21T00:00:03;99945.41;;;14.26;77.66
62011;BME280;47967;51.756;10.174;2023-05-21T00:04:13;99945.63;;;14.24;77.29
62011;BME280;47967;51.756;10.174;2023-05-21T00:08:17;99940.22;;;14.18;77.54
62011;BME280;47967;51.756;10.174;2023-05-21T00:12:19;99941.59;;;14.02;77.21
62011;BME280;47967;51.756;10.174;2023-05-21T00:16:22;99934.72;;;13.99;77.89
62011;BME280;47967;51.756;10.174;2023-05-21T00:20:25;99937.69;;;13.91;77.81
62011;BME280;47967;51.756;10.174;2023-05-21T00:24:30;99922.72;;;13.82;78.43
62011;BME280;47967;51.756;10.174;2023-05-21T00:28:33;99929.88;;;13.69;79.08
62011;BME280;47967;51.756;10.174;2023-05-21T00:32:36;99922.84;;;13.55;79.10
62011;BME280;47967;51.756;10.174;2023-05-21T00:36:38;99925.44;;;13.43;79.77
62011;BME280;47967;51.756;10.174;2023-05-21T00:40:47;99915.03;;;13.26;80.63
62011;BME280;47967;51.756;10.174;2023-05-21T00:44:50;99910.50;;;13.07;81.25
62011;BME280;47967;51.756;10.174;2023-05-21T00:48:54;99900.72;;;13.06;81.28
62011;BME280;47967;51.756;10.174;2023-05-21T00:52:58;99905.31;;;12.98;81.13
62011;BME280;47967;51.756;10.174;2023-05-21T00:57:03;99910.94;;;13.04;81.01
62011;BME280;47967;51.756;10.174;2023-05-21T01:01:06;99907.63;;;12.95;80.60
62011;BME280;47967;51.756;10.174;2023-05-21T01:05:14;99904.13;;;12.81;79.77
62011;BME280;47967;51.756;10.174;2023-05-21T01:09:17;99896.66;;;12.70;79.96
62011;BME280;47967;51.756;10.174;2023-05-21T01:13:22;99888.75;;;12.61;80.04
62011;BME280;47967;51.756;10.174;2023-05-21T01:17:27;99894.19;;;12.48;80.09
62011;BME280;47967;51.756;10.174;2023-05-21T01:21:32;99887.94;;;12.34;81.73
62011;BME280;47967;51.756;10.174;2023-05-21T01:25:39;99885.25;;;12.21;81.50
62011;BME280;47967;51.756;10.174;2023-05-21T01:29:43;99881.50;;;12.15;80.95
62011;BME280;47967;51.756;10.174;2023-05-21T01:33:48;99874.41;;;12.14;80.56
62011;BME280;47967;51.756;10.174;2023-05-21T01:37:54;99873.16;;;12.16;80.51
62011;BME280;47967;51.756;10.174;2023-05-21T01:42:01;99872.94;;;12.05;79.72
62011;BME280;47967;51.756;10.174;2023-05-21T01:46:06;99880.84;;;11.99;79.99
62011;BME280;47967;51.756;10.174;2023-05-21T01:50:11;99876.03;;;11.88;79.93
62011;BME280;47967;51.756;10.174;2023-05-21T01:54:13;99878.09;;;11.86;80.03
62011;BME280;47967;51.756;10.174;2023-05-21T01:58:17;99877.88;;;11.88;79.65
62011;BME280;47967;51.756;10.174;2023-05-21T02:02:21;99884.53;;;11.78;80.28
62011;BME280;47967;51.756;10.174;2023-05-21T02:06:24;99882.03;;;11.83;80.19
62011;BME280;47967;51.756;10.174;2023-05-21T02:10:26;99880.38;;;11.76;80.13
62011;BME280;47967;51.756;10.174;2023-05-21T02:14:30;99874.97;;;11.76;80.70
62011;BME280;47967;51.756;10.174;2023-05-21T02:18:34;99866.63;;;11.64;80.70
62011;BME280;47967;51.756;10.174;2023-05-21T02:22:38;99868.69;;;11.62;80.48
62011;BME280;47967;51.756;10.174;2023-05-21T02:26:40;99865.34;;;11.53;81.62
62011;BME280;47967;51.756;10.174;2023-05-21T02:30:45;99863.06;;;11.57;82.20
62011;BME280;47967;51.756;10.174;2023-05-21T02:34:48;99857.88;;;11.62;82.37
62011;BME280;47967;51.756;10.174;2023-05-21T02:38:51;99859.56;;;11.76;82.10
62011;BME280;47967;51.756;10.174;2023-05-21T02:42:54;99852.72;;;11.74;80.76
62011;BME280;47967;51.756;10.174;2023-05-21T02:46:58;99858.13;;;11.67;80.27
62011;BME280;47967;51.756;10.174;2023-05-21T02:51:01;99853.94;;;11.58;81.83
62011;BME280;47967;51.756;10.174;2023-05-21T02:55:04;99843.09;;;11.44;81.32
62011;BME280;47967;51.756;10.174;2023-05-21T02:59:07;99852.22;;;11.43;80.41
62011;BME280;47967;51.756;10.174;2023-05-21T03:03:11;99848.06;;;11.34;80.45
62011;BME280;47967;51.756;10.174;2023-05-21T03:07:15;99842.66;;;11.34;80.07
62011;BME280;47967;51.756;10.174;2023-05-21T03:11:20;99840.56;;;11.29;79.44
62011;BME280;47967;51.756;10.174;2023-05-21T03:15:22;99840.75;;;11.21;80.27
62011;BME280;47967;51.756;10.174;2023-05-21T03:19:26;99832.22;;;11.17;80.10
62011;BME280;47967;51.756;10.174;2023-05-21T03:23:30;99849.22;;;11.11;81.03
62011;BME280;47967;51.756;10.174;2023-05-21T03:27:33;99849.66;;;11.21;80.88
62011;BME280;47967;51.756;10.174;2023-05-21T03:31:38;99849.50;;;11.30;80.77
62011;BME280;47967;51.756;10.174;2023-05-21T03:35:47;99849.97;;;11.40;80.70
62011;BME280;47967;51.756;10.174;2023-05-21T03:39:49;99847.47;;;11.52;79.58
62011;BME280;47967;51.756;10.174;2023-05-21T03:43:52;99855.81;;;11.57;78.59
62011;BME280;47967;51.756;10.174;2023-05-21T03:47:57;99859.75;;;11.68;78.46
62011;BME280;47967;51.756;10.174;2023-05-21T03:52:01;99858.34;;;11.79;78.66
62011;BME280;47967;51.756;10.174;2023-05-21T03:56:04;99862.91;;;11.78;78.15
62011;BME280;47967;51.756;10.174;2023-05-21T04:00:07;99865.44;;;11.87;78.16
62011;BME280;47967;51.756;10.174;2023-05-21T04:04:16;99858.97;;;11.88;77.84
62011;BME280;47967;51.756;10.174;2023-05-21T04:08:20;99852.94;;;11.92;78.18
62011;BME280;47967;51.756;10.174;2023-05-21T04:12:22;99854.66;;;12.00;77.55
62011;BME280;47967;51.756;10.174;2023-05-21T04:16:25;99863.59;;;12.07;77.10
62011;BME280;47967;51.756;10.174;2023-05-21T04:20:28;99865.88;;;12.10;77.33
62011;BME280;47967;51.756;10.174;2023-05-21T04:24:32;99851.94;;;12.27;76.70
62011;BME280;47967;51.756;10.174;2023-05-21T04:28:45;99862.09;;;12.45;75.95
62011;BME280;47967;51.756;10.174;2023-05-21T04:32:48;99853.38;;;12.43;75.94
62011;BME280;47967;51.756;10.174;2023-05-21T04:36:53;99858.94;;;12.75;75.72
62011;BME280;47967;51.756;10.174;2023-05-21T04:40:59;99867.22;;;12.93;75.13
62011;BME280;47967;51.756;10.174;2023-05-21T04:45:05;99866.53;;;13.11;75.55
62011;BME280;47967;51.756;10.174;2023-05-21T04:49:10;99869.78;;;13.34;75.83
62011;BME280;47967;51.756;10.174;2023-05-21T04:53:13;99863.28;;;13.48;75.54
62011;BME280;47967;51.756;10.174;2023-05-21T04:57:17;99864.25;;;13.60;75.33
62011;BME280;47967;51.756;10.174;2023-05-21T05:01:20;99866.88;;;13.74;74.95
62011;BME280;47967;51.756;10.174;2023-05-21T05:05:24;99860.09;;;13.90;73.65
62011;BME280;47967;51.756;10.174;2023-05-21T05:09:27;99856.63;;;14.08;73.49
62011;BME280;47967;51.756;10.174;2023-05-21T05:13:32;99861.13;;;14.21;73.73
62011;BME280;47967;51.756;10.174;2023-05-21T05:17:35;99850.53;;;14.38;73.63
62011;BME280;47967;51.756;10.174;2023-05-21T05:21:37;99850.59;;;14.50;73.32
62011;BME280;47967;51.756;10.174;2023-05-21T05:25:40;99852.13;;;14.46;72.99
62011;BME280;47967;51.756;10.174;2023-05-21T05:29:45;99847.72;;;14.45;73.79
62011;BME280;47967;51.756;10.174;2023-05-21T05:33:48;99844.78;;;14.71;73.60
62011;BME280;47967;51.756;10.174;2023-05-21T05:37:51;99851.22;;;14.77;74.19
62011;BME280;47967;51.756;10.174;2023-05-21T05:41:53;99844.25;;;15.18;73.79
62011;BME280;47967;51.756;10.174;2023-05-21T05:45:57;99834.56;;;15.53;72.73
62011;BME280;47967;51.756;10.174;2023-05-21T05:50:00;99835.69;;;15.76;72.17
62011;BME280;47967;51.756;10.174;2023-05-21T05:54:03;99833.19;;;16.05;71.40
62011;BME280;47967;51.756;10.174;2023-05-21T05:58:06;99830.84;;;16.32;70.06
62011;BME280;47967;51.756;10.174;2023-05-21T06:02:23;99838.53;;;16.59;69.82
62011;BME280;47967;51.756;10.174;2023-05-21T06:06:27;99835.44;;;16.67;69.95
62011;BME280;47967;51.756;10.174;2023-05-21T06:10:29;99827.69;;;16.88;69.71
62011;BME280;47967;51.756;10.174;2023-05-21T06:14:32;99828.75;;;16.87;69.02
62011;BME280;47967;51.756;10.174;2023-05-21T06:18:36;99841.22;;;16.83;69.06
62011;BME280;47967;51.756;10.174;2023-05-21T06:22:39;99846.91;;;16.93;69.63
62011;BME280;47967;51.756;10.174;2023-05-21T06:26:42;99844.88;;;17.00;69.66
62011;BME280;47967;51.756;10.174;2023-05-21T06:30:45;99854.41;;;17.26;68.89
62011;BME280;47967;51.756;10.174;2023-05-21T06:34:56;99853.72;;;17.19;69.41
62011;BME280;47967;51.756;10.174;2023-05-21T06:38:58;99861.09;;;17.48;68.91
62011;BME280;47967;51.756;10.174;2023-05-21T06:43:01;99857.38;;;17.83;68.39
62011;BME280;47967;51.756;10.174;2023-05-21T06:47:25;99855.28;;;18.36;66.40
62011;BME280;47967;51.756;10.174;2023-05-21T06:51:31;99859.47;;;18.61;65.64
62011;BME280;47967;51.756;10.174;2023-05-21T06:55:33;99854.78;;;18.78;65.18
62011;BME280;47967;51.756;10.174;2023-05-21T06:59:47;99854.53;;;19.19;64.10
62011;BME280;47967;51.756;10.174;2023-05-21T07:03:50;99855.97;;;19.04;64.40
62011;BME280;47967;51.756;10.174;2023-05-21T07:07:54;99841.56;;;19.64;63.11
62011;BME280;47967;51.756;10.174;2023-05-21T07:11:57;99838.94;;;20.02;61.99
62011;BME280;47967;51.756;10.174;2023-05-21T07:16:00;99836.97;;;20.29;60.44
62011;BME280;47967;51.756;10.174;2023-05-21T07:20:12;99839.34;;;20.58;60.42
62011;BME280;47967;51.756;10.174;2023-05-21T07:24:18;99841.25;;;20.15;60.86
62011;BME280;47967;51.756;10.174;2023-05-21T07:28:21;99841.72;;;20.44;60.24
62011;BME280;47967;51.756;10.174;2023-05-21T07:32:24;99842.53;;;20.83;60.26
62011;BME280;47967;51.756;10.174;2023-05-21T07:36:29;99839.91;;;21.14;59.15
62011;BME280;47967;51.756;10.174;2023-05-21T07:40:35;99834.28;;;21.51;58.38
62011;BME280;47967;51.756;10.174;2023-05-21T07:44:38;99836.16;;;21.30;58.64
62011;BME280;47967;51.756;10.174;2023-05-21T07:48:41;99831.19;;;21.27;59.32
62011;BME280;47967;51.756;10.174;2023-05-21T07:52:44;99833.22;;;21.88;58.29
62011;BME280;47967;51.756;10.174;2023-05-21T07:56:48;99830.50;;;22.09;58.22
62011;BME280;47967;51.756;10.174;2023-05-21T08:01:17;99832.97;;;22.16;57.33
62011;BME280;47967;51.756;10.174;2023-05-21T08:05:19;99823.91;;;22.00;57.99
62011;BME280;47967;51.756;10.174;2023-05-21T08:09:24;99826.38;;;22.01;57.96
62011;BME280;47967;51.756;10.174;2023-05-21T08:13:28;99827.50;;;21.90;57.58
62011;BME280;47967;51.756;10.174;2023-05-21T08:17:30;99825.53;;;22.42;56.87
62011;BME280;47967;51.756;10.174;2023-05-21T08:21:33;99832.69;;;22.12;56.98
62011;BME280;47967;51.756;10.174;2023-05-21T08:25:37;99831.56;;;22.65;56.56
62011;BME280;47967;51.756;10.174;2023-05-21T08:29:41;99831.19;;;22.97;55.96
62011;BME280;47967;51.756;10.174;2023-05-21T08:33:49;99836.22;;;23.35;55.26
62011;BME280;47967;51.756;10.174;2023-05-21T08:37:54;99833.59;;;23.20;56.23
62011;BME280;47967;51.756;10.174;2023-05-21T08:42:11;99833.13;;;23.47;54.46
62011;BME280;47967;51.756;10.174;2023-05-21T08:46:32;99837.00;;;23.46;54.35
62011;BME280;47967;51.756;10.174;2023-05-21T08:50:35;99829.28;;;23.48;55.28
62011;BME280;47967;51.756;10.174;2023-05-21T08:54:45;99835.78;;;23.12;55.82
62011;BME280;47967;51.756;10.174;2023-05-21T08:58:48;99833.03;;;23.12;56.16
62011;BME280;47967;51.756;10.174;2023-05-21T09:02:54;99828.66;;;23.06;57.23
62011;BME280;47967;51.756;10.174;2023-05-21T09:06:59;99828.94;;;23.05;57.78
62011;BME280;47967;51.756;10.174;2023-05-21T09:11:37;99811.53;;;23.25;58.20
62011;BME280;47967;51.756;10.174;2023-05-21T09:15:39;99814.19;;;23.40;57.45
62011;BME280;47967;51.756;10.174;2023-05-21T09:20:08;99810.81;;;23.88;56.04
62011;BME280;47967;51.756;10.174;2023-05-21T09:24:15;99824.34;;;23.85;55.88
62011;BME280;47967;51.756;10.174;2023-05-21T09:28:19;99813.81;;;24.26;53.59
62011;BME280;47967;51.756;10.174;2023-05-21T09:32:21;99812.69;;;25.05;52.45
62011;BME280;47967;51.756;10.174;2023-05-21T09:36:26;99802.94;;;24.89;51.81
62011;BME280;47967;51.756;10.174;2023-05-21T09:40:29;99806.56;;;25.52;50.91
62011;BME280;47967;51.756;10.174;2023-05-21T09:44:33;99802.97;;;25.51;51.16
62011;BME280;47967;51.756;10.174;2023-05-21T09:48:37;99803.53;;;25.10;51.11
62011;BME280;47967;51.756;10.174;2023-05-21T09:52:45;99799.88;;;25.15;51.96
62011;BME280;47967;51.756;10.174;2023-05-21T09:56:48;99799.41;;;25.84;50.41
62011;BME280;47967;51.756;10.174;2023-05-21T10:00:52;99794.16;;;26.01;50.09
62011;BME280;47967;51.756;10.174;2023-05-21T10:04:55;99787.34;;;26.13;50.39
62011;BME280;47967;51.756;10.174;2023-05-21T10:09:02;99786.25;;;26.28;49.84
62011;BME280;47967;51.756;10.174;2023-05-21T10:13:08;99781.75;;;27.02;49.86
62011;BME280;47967;51.756;10.174;2023-05-21T10:17:13;99775.41;;;27.38;48.45
62011;BME280;47967;51.756;10.174;2023-05-21T10:21:16;99770.91;;;27.28;50.43
62011;BME280;47967;51.756;10.174;2023-05-21T10:25:21;99769.22;;;27.55;48.91
62011;BME280;47967;51.756;10.174;2023-05-21T10:29:24;99760.16;;;27.63;48.30
62011;BME280;47967;51.756;10.174;2023-05-21T10:33:27;99757.31;;;27.77;47.21
62011;BME280;47967;51.756;10.174;2023-05-21T10:37:30;99762.13;;;28.17;45.19
62011;BME280;47967;51.756;10.174;2023-05-21T10:41:38;99756.31;;;27.73;45.03
62011;BME280;47967;51.756;10.174;2023-05-21T10:45:56;99749.06;;;28.17;46.14
62011;BME280;47967;51.756;10.174;2023-05-21T10:50:15;99749.63;;;28.28;45.03
62011;BME280;47967;51.756;10.174;2023-05-21T10:54:59;99748.13;;;28.62;44.40
62011;BME280;47967;51.756;10.174;2023-05-21T10:59:14;99754.09;;;28.87;43.87
62011;BME280;47967;51.756;10.174;2023-05-21T11:03:23;99742.03;;;29.09;42.27
62011;BME280;47967;51.756;10.174;2023-05-21T11:07:50;99748.72;;;29.08;43.50
62011;BME280;47967;51.756;10.174;2023-05-21T11:11:56;99741.75;;;29.37;44.58
62011;BME280;47967;51.756;10.174;2023-05-21T11:16:12;99736.81;;;29.43;44.96
62011;BME280;47967;51.756;10.174;2023-05-21T11:20:15;99740.34;;;28.82;44.49
62011;BME280;47967;51.756;10.174;2023-05-21T11:24:18;99742.03;;;29.00;44.64
62011;BME280;47967;51.756;10.174;2023-05-21T11:28:31;99735.13;;;28.98;44.59
62011;BME280;47967;51.756;10.174;2023-05-21T11:32:39;99729.63;;;29.24;45.20
62011;BME280;47967;51.756;10.174;2023-05-21T11:36:43;99724.88;;;28.98;45.85
62011;BME280;47967;51.756;10.174;2023-05-21T11:40:49;99730.25;;;29.12;46.39
62011;BME280;47967;51.756;10.174;2023-05-21T11:44:55;99726.34;;;29.04;46.73
62011;BME280;47967;51.756;10.174;2023-05-21T11:49:00;99716.88;;;28.97;44.73
62011;BME280;47967;51.756;10.174;2023-05-21T11:53:04;99719.34;;;29.33;44.92
62011;BME280;47967;51.756;10.174;2023-05-21T11:57:08;99715.38;;;29.61;42.46
62011;BME280;47967;51.756;10.174;2023-05-21T12:01:20;99717.75;;;30.06;41.89
62011;BME280;47967;51.756;10.174;2023-05-21T12:05:24;99708.69;;;29.62;44.35
62011;BME280;47967;51.756;10.174;2023-05-21T12:09:27;99712.94;;;29.59;42.73
62011;BME280;47967;51.756;10.174;2023-05-21T12:13:30;99713.09;;;29.28;44.02
62011;BME280;47967;51.756;10.174;2023-05-21T12:17:32;99706.25;;;29.43;42.16
62011;BME280;47967;51.756;10.174;2023-05-21T12:21:37;99708.19;;;29.60;41.67
62011;BME280;47967;51.756;10.174;2023-05-21T12:25:39;99707.19;;;29.73;41.76
62011;BME280;47967;51.756;10.174;2023-05-21T12:29:43;99703.84;;;30.06;40.08
62011;BME280;47967;51.756;10.174;2023-05-21T12:33:46;99698.56;;;30.13;38.55
62011;BME280;47967;51.756;10.174;2023-05-21T12:37:51;99712.91;;;29.77;38.59
62011;BME280;47967;51.756;10.174;2023-05-21T12:41:53;99703.22;;;29.83;37.79
62011;BME280;47967;51.756;10.174;2023-05-21T12:45:56;99709.50;;;29.01;39.56
62011;BME280;47967;51.756;10.174;2023-05-21T12:49:59;99712.13;;;29.06;39.31
62011;BME280;47967;51.756;10.174;2023-05-21T12:54:10;99704.06;;;29.83;39.45
62011;BME280;47967;51.756;10.174;2023-05-21T12:58:13;99699.44;;;29.96;37.09
62011;BME280;47967;51.756;10.174;2023-05-21T13:02:20;99704.09;;;29.66;38.27
62011;BME280;47967;51.756;10.174;2023-05-21T13:06:23;99693.97;;;29.52;35.82
62011;BME280;47967;51.756;10.174;2023-05-21T13:10:28;99701.75;;;29.85;36.07
62011;BME280;47967;51.756;10.174;2023-05-21T13:14:30;99696.53;;;29.84;36.28
62011;BME280;47967;51.756;10.174;2023-05-21T13:18:33;99689.47;;;29.95;36.37
62011;BME280;47967;51.756;10.174;2023-05-21T13:22:37;99692.59;;;29.85;37.40
62011;BME280;47967;51.756;10.174;2023-05-21T13:26:44;99696.66;;;29.96;38.48
62011;BME280;47967;51.756;10.174;2023-05-21T13:30:46;99687.59;;;30.17;38.80
62011;BME280;47967;51.756;10.174;2023-05-21T13:34:49;99690.97;;;30.31;38.76
62011;BME280;47967;51.756;10.174;2023-05-21T13:38:51;99695.22;;;30.29;37.32
62011;BME280;47967;51.756;10.174;2023-05-21T13:42:57;99688.16;;;30.91;37.57
62011;BME280;47967;51.756;10.174;2023-05-21T13:47:00;99687.22;;;30.87;36.84
62011;BME280;47967;51.756;10.174;2023-05-21T13:51:03;99686.53;;;30.90;37.83
62011;BME280;47967;51.756;10.174;2023-05-21T13:55:06;99690.47;;;30.89;36.64
62011;BME280;47967;51.756;10.174;2023-05-21T13:59:10;99689.41;;;31.24;37.01
62011;BME280;47967;51.756;10.174;2023-05-21T14:03:13;99686.47;;;31.54;36.42
62011;BME280;47967;51.756;10.174;2023-05-21T14:07:16;99680.66;;;31.80;35.52
62011;BME280;47967;51.756;10.174;2023-05-21T14:11:18;99675.22;;;32.08;34.02
62011;BME280;47967;51.756;10.174;2023-05-21T14:15:23;99673.25;;;32.59;34.52
62011;BME280;47967;51.756;10.174;2023-05-21T14:19:26;99677.88;;;32.17;34.25
62011;BME280;47967;51.756;10.174;2023-05-21T14:23:30;99678.59;;;32.64;34.62
62011;BME280;47967;51.756;10.174;2023-05-21T14:27:33;99679.66;;;32.47;33.90
62011;BME280;47967;51.756;10.174;2023-05-21T14:31:39;99673.59;;;32.57;34.45
62011;BME280;47967;51.756;10.174;2023-05-21T14:35:42;99669.03;;;32.15;34.42
62011;BME280;47967;51.756;10.174;2023-05-21T14:39:45;99669.28;;;32.10;34.36
62011;BME280;47967;51.756;10.174;2023-05-21T14:43:47;99665.31;;;31.86;34.17
62011;BME280;47967;51.756;10.174;2023-05-21T14:47:51;99675.94;;;32.18;34.29
62011;BME280;47967;51.756;10.174;2023-05-21T14:51:54;99660.66;;;31.90;33.53
62011;BME280;47967;51.756;10.174;2023-05-21T14:55:56;99664.28;;;31.91;33.43
62011;BME280;47967;51.756;10.174;2023-05-21T14:59:59;99664.06;;;31.96;33.75
62011;BME280;47967;51.756;10.174;2023-05-21T15:04:03;99649.66;;;31.60;34.35
62011;BME280;47967;51.756;10.174;2023-05-21T15:08:08;99648.25;;;32.37;33.56
62011;BME280;47967;51.756;10.174;2023-05-21T15:12:10;99655.97;;;32.94;32.15
62011;BME280;47967;51.756;10.174;2023-05-21T15:16:13;99648.00;;;33.08;32.63
62011;BME280;47967;51.756;10.174;2023-05-21T15:20:20;99647.25;;;32.83;32.29
62011;BME280;47967;51.756;10.174;2023-05-21T15:24:23;99646.38;;;32.41;32.45
62011;BME280;47967;51.756;10.174;2023-05-21T15:28:26;99641.56;;;33.64;32.17
62011;BME280;47967;51.756;10.174;2023-05-21T15:32:29;99636.13;;;34.36;30.68
62011;BME280;47967;51.756;10.174;2023-05-21T15:36:33;99637.50;;;32.77;31.32
62011;BME280;47967;51.756;10.174;2023-05-21T15:40:38;99636.69;;;32.76;31.12
62011;BME280;47967;51.756;10.174;2023-05-21T15:44:41;99643.34;;;33.57;31.65
62011;BME280;47967;51.756;10.174;2023-05-21T15:48:44;99634.25;;;34.08;30.91
62011;BME280;47967;51.756;10.174;2023-05-21T15:52:50;99635.72;;;33.86;31.59
62011;BME280;47967;51.756;10.174;2023-05-21T15:56:54;99627.59;;;33.36;31.51
62011;BME280;47967;51.756;10.174;2023-05-21T16:00:56;99628.03;;;32.94;32.46
62011;BME280;47967;51.756;10.174;2023-05-21T16:04:59;99628.00;;;32.40;32.45
62011;BME280;47967;51.756;10.174;2023-05-21T16:09:03;99631.84;;;32.11;33.08
62011;BME280;47967;51.756;10.174;2023-05-21T16:13:06;99631.91;;;31.65;33.42
62011;BME280;47967;51.756;10.174;2023-05-21T16:17:08;99629.28;;;31.48;32.84
62011;BME280;47967;51.756;10.174;2023-05-21T16:21:11;99628.38;;;31.56;33.45
62011;BME280;47967;51.756;10.174;2023-05-21T16:25:15;99632.03;;;31.69;33.66
62011;BME280;47967;51.756;10.174;2023-05-21T16:29:18;99629.25;;;30.80;34.27
62011;BME280;47967;51.756;10.174;2023-05-21T16:33:22;99632.09;;;30.42;34.57
62011;BME280;47967;51.756;10.174;2023-05-21T16:37:25;99627.44;;;30.33;34.93
62011;BME280;47967;51.756;10.174;2023-05-21T16:41:29;99625.84;;;30.24;35.84
62011;BME280;47967;51.756;10.174;2023-05-21T16:45:34;99628.81;;;29.71;35.59
62011;BME280;47967;51.756;10.174;2023-05-21T16:49:39;99629.41;;;29.47;36.29
62011;BME280;47967;51.756;10.174;2023-05-21T16:53:42;99628.66;;;29.76;36.05
62011;BME280;47967;51.756;10.174;2023-05-21T16:57:46;99624.81;;;30.28;35.78
62011;BME280;47967;51.756;10.174;2023-05-21T17:01:48;99624.59;;;29.74;35.76
62011;BME280;47967;51.756;10.174;2023-05-21T17:05:51;99626.19;;;29.75;36.36
62011;BME280;47967;51.756;10.174;2023-05-21T17:09:54;99627.47;;;29.95;36.00
62011;BME280;47967;51.756;10.174;2023-05-21T17:13:58;99623.25;;;29.71;36.15
62011;BME280;47967;51.756;10.174;2023-05-21T17:18:00;99621.88;;;29.47;36.78
62011;BME280;47967;51.756;10.174;2023-05-21T17:22:03;99626.16;;;29.18;37.58
62011;BME280;47967;51.756;10.174;2023-05-21T17:26:06;99626.09;;;29.53;36.99
62011;BME280;47967;51.756;10.174;2023-05-21T17:30:11;99617.97;;;29.31;37.23
62011;BME280;47967;51.756;10.174;2023-05-21T17:34:14;99619.44;;;29.28;37.54
62011;BME280;47967;51.756;10.174;2023-05-21T17:38:18;99625.53;;;29.13;37.59
62011;BME280;47967;51.756;10.174;2023-05-21T17:42:21;99622.72;;;28.95;37.84
62011;BME280;47967;51.756;10.174;2023-05-21T17:46:25;99630.91;;;29.18;38.31
62011;BME280;47967;51.756;10.174;2023-05-21T17:50:28;99619.63;;;29.05;38.02
62011;BME280;47967;51.756;10.174;2023-05-21T17:54:30;99620.09;;;29.34;38.15
62011;BME280;47967;51.756;10.174;2023-05-21T17:58:34;99620.44;;;29.06;38.58
62011;BME280;47967;51.756;10.174;2023-05-21T18:02:38;99623.41;;;28.83;39.41
62011;BME280;47967;51.756;10.174;2023-05-21T18:06:41;99620.25;;;28.58;39.47
62011;BME280;47967;51.756;10.174;2023-05-21T18:10:43;99629.50;;;28.27;40.11
62011;BME280;47967;51.756;10.174;2023-05-21T18:14:48;99619.59;;;28.04;40.63
62011;BME280;47967;51.756;10.174;2023-05-21T18:18:52;99618.78;;;27.40;41.32
62011;BME280;47967;51.756;10.174;2023-05-21T18:22:54;99610.44;;;27.31;42.24
62011;BME280;47967;51.756;10.174;2023-05-21T18:26:57;99615.22;;;27.17;42.55
62011;BME280;47967;51.756;10.174;2023-05-21T18:31:00;99617.00;;;27.13;42.57
62011;BME280;47967;51.756;10.174;2023-05-21T18:35:07;99632.06;;;26.84;43.10
62011;BME280;47967;51.756;10.174;2023-05-21T18:39:14;99629.66;;;26.55;43.55
62011;BME280;47967;51.756;10.174;2023-05-21T18:43:16;99632.88;;;26.48;43.50
62011;BME280;47967;51.756;10.174;2023-05-21T18:47:19;99629.13;;;26.16;44.17
62011;BME280;47967;51.756;10.174;2023-05-21T18:51:23;99631.03;;;26.01;44.46
62011;BME280;47967;51.756;10.174;2023-05-21T18:55:26;99633.25;;;25.71;44.69
62011;BME280;47967;51.756;10.174;2023-05-21T18:59:28;99634.06;;;25.58;45.43
62011;BME280;47967;51.756;10.174;2023-05-21T19:03:31;99634.03;;;25.25;45.88
62011;BME280;47967;51.756;10.174;2023-05-21T19:07:35;99641.75;;;25.09;46.14
62011;BME280;47967;51.756;10.174;2023-05-21T19:11:38;99636.94;;;24.82;46.62
62011;BME280;47967;51.756;10.174;2023-05-21T19:15:40;99644.81;;;24.69;47.04
62011;BME280;47967;51.756;10.174;2023-05-21T19:19:47;99630.47;;;24.48;47.42
62011;BME280;47967;51.756;10.174;2023-05-21T19:23:55;99642.69;;;24.42;47.60
62011;BME280;47967;51.756;10.174;2023-05-21T19:27:58;99645.06;;;24.29;48.06
62011;BME280;47967;51.756;10.174;2023-05-21T19:32:01;99645.47;;;24.18;48.11
62011;BME280;47967;51.756;10.174;2023-05-21T19:36:04;99653.66;;;23.98;48.49
62011;BME280;47967;51.756;10.174;2023-05-21T19:40:09;99649.66;;;23.86;48.66
62011;BME280;47967;51.756;10.174;2023-05-21T19:44:12;99656.81;;;23.87;48.40
62011;BME280;47967;51.756;10.174;2023-05-21T19:48:14;99661.94;;;23.69;48.63
62011;BME280;47967;51.756;10.174;2023-05-21T19:52:17;99659.66;;;23.47;49.63
62011;BME280;47967;51.756;10.174;2023-05-21T19:56:21;99664.56;;;23.21;50.76
62011;BME280;47967;51.756;10.174;2023-05-21T20:00:23;99656.22;;;22.86;51.36
62011;BME280;47967;51.756;10.174;2023-05-21T20:04:26;99659.88;;;22.81;51.52
62011;BME280;47967;51.756;10.174;2023-05-21T20:08:29;99662.63;;;22.76;51.70
62011;BME280;47967;51.756;10.174;2023-05-21T20:12:33;99662.41;;;22.67;51.74
62011;BME280;47967;51.756;10.174;2023-05-21T20:16:35;99664.22;;;22.88;51.06
62011;BME280;47967;51.756;10.174;2023-05-21T20:20:38;99659.19;;;22.95;50.85
62011;BME280;47967;51.756;10.174;2023-05-21T20:24:42;99653.13;;;22.98;50.96
62011;BME280;47967;51.756;10.174;2023-05-21T20:28:46;99658.09;;;22.96;51.15
62011;BME280;47967;51.756;10.174;2023-05-21T20:32:48;99662.41;;;22.67;52.05
62011;BME280;47967;51.756;10.174;2023-05-21T20:36:51;99664.06;;;22.68;51.70
62011;BME280;47967;51.756;10.174;2023-05-21T20:40:58;99660.28;;;22.54;52.25
62011;BME280;47967;51.756;10.174;2023-05-21T20:45:02;99664.44;;;22.36;52.79
62011;BME280;47967;51.756;10.174;2023-05-21T20:49:05;99668.06;;;22.26;53.35
62011;BME280;47967;51.756;10.174;2023-05-21T20:53:08;99657.72;;;21.97;54.61
62011;BME280;47967;51.756;10.174;2023-05-21T20:57:11;99659.94;;;21.80;54.56
